createdAt,value
2022-08-16T00:01:41.106Z,4.60
2022-08-16T00:04:09.581Z,5.18
2022-08-16T00:06:39.429Z,5.03
2022-08-16T00:09:07.393Z,5.05
2022-08-16T00:11:38.160Z,4.25
2022-08-16T00:14:08.504Z,4.47
2022-08-16T00:17:06.599Z,4.60
2022-08-16T00:19:25.159Z,4.32
2022-08-16T00:22:00.957Z,4.82
2022-08-16T00:24:31.287Z,5.05
2022-08-16T00:27:00.054Z,4.65
2022-08-16T00:29:29.690Z,5.00
2022-08-16T00:32:00.024Z,4.40
2022-08-16T00:34:43.446Z,5.03
2022-08-16T00:37:11.942Z,4.63
2022-08-16T00:39:44.809Z,4.18
2022-08-16T00:42:11.956Z,5.03
2022-08-16T00:44:40.196Z,4.50
2022-08-16T00:47:10.447Z,4.60
2022-08-16T00:49:39.380Z,4.60
2022-08-16T00:52:29.951Z,4.47
2022-08-16T00:54:58.890Z,4.60
2022-08-16T00:57:26.765Z,4.70
2022-08-16T00:59:58.957Z,4.40
2022-08-16T01:02:31.452Z,4.38
2022-08-16T01:05:09.537Z,4.40
2022-08-16T01:07:50.690Z,4.88
2022-08-16T01:10:18.783Z,3.95
2022-08-16T01:12:45.974Z,4.30
2022-08-16T01:15:13.326Z,4.38
2022-08-16T01:17:42.290Z,4.30
2022-08-16T01:20:23.476Z,4.20
2022-08-16T01:22:57.827Z,4.45
2022-08-16T01:25:34.202Z,4.15
2022-08-16T01:28:02.738Z,4.20
2022-08-16T01:30:33.317Z,4.18
2022-08-16T01:33:15.225Z,4.32
2022-08-16T01:35:42.841Z,4.63
2022-08-16T01:38:19.503Z,4.47
2022-08-16T01:40:47.098Z,4.65
2022-08-16T01:43:14.539Z,3.90
2022-08-16T01:45:43.401Z,4.15
2022-08-16T01:48:19.962Z,4.07
2022-08-16T01:51:09.438Z,4.40
2022-08-16T01:53:34.858Z,3.95
2022-08-16T01:56:01.979Z,3.95
2022-08-16T01:58:30.285Z,4.18
2022-08-16T02:00:57.499Z,3.83
2022-08-16T02:03:26.639Z,4.38
2022-08-16T02:05:54.068Z,3.88
2022-08-16T02:08:33.502Z,4.03
2022-08-16T02:11:02.378Z,3.80
2022-08-16T02:13:32.598Z,3.58
2022-08-16T02:16:00.034Z,3.83
2022-08-16T02:18:28.757Z,3.63
2022-08-16T02:20:55.831Z,3.53
2022-08-16T02:23:23.093Z,3.88
2022-08-16T02:25:53.799Z,3.90
2022-08-16T02:28:23.896Z,3.80
2022-08-16T02:30:51.936Z,4.25
2022-08-16T02:33:19.494Z,3.33
2022-08-16T02:35:54.231Z,4.32
2022-08-16T02:38:25.739Z,3.90
2022-08-16T02:40:54.446Z,4.10
2022-08-16T02:43:26.659Z,3.80
2022-08-16T02:45:54.511Z,3.83
2022-08-16T02:48:29.002Z,4.03
2022-08-16T02:51:06.256Z,3.80
2022-08-16T02:53:38.635Z,3.95
2022-08-16T02:56:09.938Z,4.05
2022-08-16T02:58:37.349Z,4.25
2022-08-16T03:01:06.994Z,3.85
2022-08-16T03:04:29.669Z,3.80
2022-08-16T03:06:41.501Z,3.70
2022-08-16T03:09:13.594Z,4.28
2022-08-16T03:11:42.554Z,3.72
2022-08-16T03:14:11.402Z,3.70
2022-08-16T03:16:58.722Z,3.80
2022-08-16T03:19:26.232Z,4.30
2022-08-16T03:22:13.354Z,3.97
2022-08-16T03:24:47.015Z,3.90
2022-08-16T03:27:14.133Z,3.92
2022-08-16T03:29:42.767Z,3.70
2022-08-16T03:32:21.797Z,3.90
2022-08-16T03:34:50.050Z,4.00
2022-08-16T03:37:17.521Z,4.13
2022-08-16T03:39:44.648Z,3.92
2022-08-16T03:42:11.785Z,4.05
2022-08-16T03:44:49.332Z,3.80
2022-08-16T03:47:19.191Z,4.07
2022-08-16T03:49:47.884Z,4.15
2022-08-16T03:52:20.112Z,4.13
2022-08-16T03:54:53.247Z,4.00
2022-08-16T03:57:21.274Z,4.28
2022-08-16T03:59:48.329Z,4.10
2022-08-16T04:02:22.886Z,4.10
2022-08-16T04:04:58.864Z,4.10
2022-08-16T04:07:25.991Z,4.75
2022-08-16T04:09:53.054Z,4.45
2022-08-16T04:12:53.454Z,4.55
2022-08-16T04:15:08.637Z,4.30
2022-08-16T04:17:37.413Z,4.30
2022-08-16T04:20:23.549Z,4.55
2022-08-16T04:22:56.002Z,4.00
2022-08-16T04:25:23.457Z,4.47
2022-08-16T04:27:54.312Z,4.43
2022-08-16T04:30:31.827Z,4.72
2022-08-16T04:33:02.009Z,4.82
2022-08-16T04:35:34.357Z,4.70
2022-08-16T04:38:20.899Z,4.90
2022-08-16T04:40:49.933Z,4.68
2022-08-16T04:43:18.481Z,4.60
2022-08-16T04:45:45.866Z,4.70
2022-08-16T04:48:21.978Z,4.50
2022-08-16T04:50:55.966Z,4.32
2022-08-16T04:53:23.073Z,4.63
2022-08-16T04:55:54.080Z,4.32
2022-08-16T04:58:38.426Z,4.90
2022-08-16T05:01:08.734Z,4.13
2022-08-16T05:03:35.869Z,4.65
2022-08-16T05:06:09.351Z,4.97
2022-08-16T05:08:36.664Z,5.43
2022-08-16T05:11:08.331Z,4.68
2022-08-16T05:13:41.050Z,4.65
2022-08-16T05:16:11.866Z,4.68
2022-08-16T05:18:39.238Z,4.97
2022-08-16T05:21:12.485Z,4.68
2022-08-16T05:23:39.903Z,5.05
2022-08-16T05:26:09.190Z,5.20
2022-08-16T05:28:47.582Z,5.13
2022-08-16T05:31:23.159Z,5.35
2022-08-16T05:33:53.578Z,4.85
2022-08-16T05:36:21.778Z,5.00
2022-08-16T05:38:49.322Z,5.47
2022-08-16T05:41:18.750Z,5.03
2022-08-16T05:43:47.595Z,5.45
2022-08-16T05:46:28.952Z,4.40
2022-08-16T05:49:03.664Z,4.95
2022-08-16T05:51:36.887Z,4.65
2022-08-16T05:54:06.214Z,4.72
2022-08-16T05:56:35.963Z,4.97
2022-08-16T05:59:06.405Z,4.82
2022-08-16T06:01:38.749Z,5.30
2022-08-16T06:04:12.703Z,4.80
2022-08-16T06:06:56.703Z,5.78
2022-08-16T06:09:25.094Z,5.47
2022-08-16T06:11:52.355Z,5.40
2022-08-16T06:14:19.891Z,4.55
2022-08-16T06:16:50.846Z,4.65
2022-08-16T06:19:18.256Z,5.22
2022-08-16T06:21:45.857Z,5.18
2022-08-16T06:24:52.573Z,4.95
2022-08-16T06:27:09.737Z,5.88
2022-08-16T06:29:37.390Z,5.45
2022-08-16T06:32:05.001Z,5.90
2022-08-16T06:34:57.074Z,5.28
2022-08-16T06:37:23.492Z,5.32
2022-08-16T06:39:50.701Z,6.10
2022-08-16T06:42:19.010Z,5.20
2022-08-16T06:44:46.386Z,6.40
2022-08-16T06:47:17.119Z,5.60
2022-08-16T06:49:52.776Z,5.43
2022-08-16T06:52:57.914Z,6.68
2022-08-16T06:55:08.378Z,6.28
2022-08-16T06:57:40.721Z,6.10
2022-08-16T07:00:24.195Z,7.13
2022-08-16T07:02:53.642Z,6.45
2022-08-16T07:05:27.278Z,7.05
2022-08-16T07:08:11.500Z,8.05
2022-08-16T07:10:38.982Z,7.88
2022-08-16T07:13:11.505Z,7.32
2022-08-16T07:15:50.032Z,7.38
2022-08-16T07:18:21.710Z,7.25
2022-08-16T07:20:53.493Z,6.90
2022-08-16T07:23:21.645Z,8.05
2022-08-16T07:26:05.310Z,8.45
2022-08-16T07:28:32.468Z,7.97
2022-08-16T07:31:01.940Z,7.45
2022-08-16T07:33:53.657Z,5.50
2022-08-16T07:36:22.055Z,6.50
2022-08-16T07:38:49.417Z,7.68
2022-08-16T07:41:17.311Z,7.32
2022-08-16T07:43:46.105Z,6.45
2022-08-16T07:46:38.877Z,8.50
2022-08-16T07:49:03.270Z,6.32
2022-08-16T07:51:37.221Z,4.93
2022-08-16T07:54:09.330Z,7.85
2022-08-16T07:56:37.736Z,8.15
2022-08-16T07:59:05.327Z,9.07
2022-08-16T08:01:32.422Z,9.20
2022-08-16T08:04:00.200Z,6.05
2022-08-16T08:06:30.609Z,6.90
2022-08-16T08:08:59.470Z,8.52
2022-08-16T08:11:28.344Z,8.35
2022-08-16T08:13:55.704Z,7.40
2022-08-16T08:16:30.064Z,8.35
2022-08-16T08:19:00.874Z,7.38
2022-08-16T08:22:00.754Z,8.85
2022-08-16T08:24:17.593Z,8.98
2022-08-16T08:26:50.187Z,8.45
2022-08-16T08:29:23.056Z,8.73
2022-08-16T08:32:04.375Z,9.98
2022-08-16T08:34:51.468Z,9.95
2022-08-16T08:37:18.962Z,8.45
2022-08-16T08:39:54.925Z,9.63
2022-08-16T08:42:26.605Z,6.28
2022-08-16T08:44:55.190Z,8.18
2022-08-16T08:47:23.374Z,8.25
2022-08-16T08:49:55.668Z,8.02
2022-08-16T08:52:35.369Z,6.53
2022-08-16T08:55:10.981Z,6.78
2022-08-16T08:57:42.577Z,6.60
2022-08-16T09:00:13.693Z,6.57
2022-08-16T09:02:42.071Z,8.13
2022-08-16T09:05:15.458Z,8.15
2022-08-16T09:08:01.485Z,8.05
2022-08-16T09:10:30.227Z,7.97
2022-08-16T09:12:57.883Z,4.55
2022-08-16T09:15:26.361Z,5.38
2022-08-16T09:18:00.462Z,5.93
2022-08-16T09:20:29.676Z,7.05
2022-08-16T09:22:57.767Z,5.32
2022-08-16T09:25:26.422Z,7.10
2022-08-16T09:28:02.660Z,7.20
2022-08-16T09:30:44.255Z,6.82
2022-08-16T09:33:13.012Z,3.47
2022-08-16T09:35:42.692Z,6.05
2022-08-16T09:38:12.829Z,5.50
2022-08-16T09:40:59.091Z,6.88
2022-08-16T09:44:00.102Z,5.97
2022-08-16T09:46:44.737Z,5.97
2022-08-16T09:49:03.290Z,6.68
2022-08-16T09:51:36.459Z,5.85
2022-08-16T09:54:04.882Z,6.55
2022-08-16T09:56:34.150Z,4.35
2022-08-16T09:59:05.636Z,5.20
2022-08-16T10:01:36.185Z,6.72
2022-08-16T10:04:04.510Z,5.90
2022-08-16T10:06:33.710Z,6.35
2022-08-16T10:09:05.480Z,7.20
2022-08-16T10:11:52.375Z,6.80
2022-08-16T10:14:19.768Z,6.72
2022-08-16T10:16:51.524Z,3.85
2022-08-16T10:19:27.806Z,6.68
2022-08-16T10:21:56.592Z,3.67
2022-08-16T10:24:28.170Z,4.90
2022-08-16T10:27:20.325Z,5.75
2022-08-16T10:30:00.028Z,6.72
2022-08-16T10:32:30.389Z,5.28
2022-08-16T10:34:57.875Z,5.80
2022-08-16T10:37:36.047Z,5.32
2022-08-16T10:40:05.980Z,5.82
2022-08-16T10:42:33.144Z,5.93
2022-08-16T10:45:00.606Z,5.75
2022-08-16T10:47:28.085Z,5.53
2022-08-16T10:49:55.761Z,5.95
2022-08-16T10:52:24.435Z,4.28
2022-08-16T10:54:59.136Z,6.00
2022-08-16T10:57:28.077Z,4.53
2022-08-16T11:00:01.175Z,6.03
2022-08-16T11:02:58.101Z,4.80
2022-08-16T11:05:16.771Z,6.10
2022-08-16T11:07:53.400Z,5.68
2022-08-16T11:16:26.681Z,5.32
2022-08-16T11:19:05.420Z,5.63
2022-08-16T11:21:37.435Z,5.25
2022-08-16T11:24:39.450Z,5.32
2022-08-16T11:27:32.801Z,5.57
2022-08-16T11:29:56.600Z,5.72
2022-08-16T11:32:31.293Z,5.57
2022-08-16T11:35:11.240Z,6.38
2022-08-16T11:40:33.144Z,5.20
2022-08-16T11:43:01.371Z,6.05
2022-08-16T11:45:28.504Z,5.80
2022-08-16T11:48:00.786Z,5.70
2022-08-16T11:50:27.976Z,5.40
2022-08-16T11:52:55.037Z,5.85
2022-08-16T11:55:23.640Z,5.40
2022-08-16T11:57:51.589Z,5.28
2022-08-16T12:00:49.901Z,5.47
2022-08-16T12:03:12.294Z,5.55
2022-08-16T12:05:40.352Z,5.80
2022-08-16T12:08:09.037Z,5.50
2022-08-16T12:10:37.842Z,6.00
2022-08-16T12:13:10.364Z,6.40
2022-08-16T12:15:38.412Z,5.78
2022-08-16T12:18:06.901Z,5.68
2022-08-16T12:20:35.706Z,5.45
2022-08-16T12:23:03.660Z,6.10
2022-08-16T12:25:31.334Z,6.55
2022-08-16T12:27:59.189Z,7.00
2022-08-16T12:30:34.825Z,6.30
2022-08-16T12:33:06.703Z,6.45
2022-08-16T12:35:35.520Z,6.75
2022-08-16T12:38:35.806Z,6.22
2022-08-16T12:40:52.891Z,6.20
2022-08-16T12:43:23.602Z,6.25
2022-08-16T12:45:52.161Z,6.50
2022-08-16T12:48:39.309Z,6.38
2022-08-16T12:51:23.821Z,5.82
2022-08-16T12:53:52.155Z,6.78
2022-08-16T12:56:21.168Z,6.60
2022-08-16T12:58:51.846Z,5.93
2022-08-16T13:01:22.381Z,6.40
2022-08-16T13:03:55.847Z,6.03
2022-08-16T13:06:36.858Z,5.95
2022-08-16T13:09:18.209Z,5.65
2022-08-16T13:11:55.359Z,5.70
2022-08-16T13:14:32.246Z,5.72
2022-08-16T13:17:01.289Z,5.60
2022-08-16T13:19:55.932Z,5.75
2022-08-16T13:22:18.772Z,5.53
2022-08-16T13:24:46.663Z,5.43
2022-08-16T13:27:13.839Z,5.25
2022-08-16T13:29:43.917Z,4.93
2022-08-16T13:32:39.650Z,4.18
2022-08-16T13:34:58.607Z,5.72
2022-08-16T13:37:28.301Z,5.35
2022-08-16T13:39:55.630Z,5.50
2022-08-16T13:42:22.892Z,4.95
2022-08-16T13:44:58.370Z,5.20
2022-08-16T13:47:30.050Z,4.97
2022-08-16T13:49:57.560Z,5.30
2022-08-16T13:52:25.182Z,5.15
2022-08-16T13:55:01.245Z,5.75
2022-08-16T13:57:53.553Z,5.30
2022-08-16T14:00:19.361Z,4.95
2022-08-16T14:02:47.285Z,5.40
2022-08-16T14:05:21.906Z,5.43
2022-08-16T14:07:52.818Z,5.15
2022-08-16T14:10:20.127Z,5.13
2022-08-16T14:12:48.502Z,5.18
2022-08-16T14:15:16.157Z,4.80
2022-08-16T14:18:14.856Z,5.68
2022-08-16T14:20:30.930Z,4.85
2022-08-16T14:22:58.861Z,4.80
2022-08-16T14:25:27.015Z,5.18
2022-08-16T14:27:55.026Z,5.07
2022-08-16T14:30:23.399Z,5.70
2022-08-16T14:32:51.104Z,4.88
2022-08-16T14:35:36.314Z,4.78
2022-08-16T14:38:11.021Z,4.82
2022-08-16T14:40:47.180Z,4.90
2022-08-16T14:43:19.720Z,4.68
2022-08-16T14:45:50.371Z,4.50
2022-08-16T14:48:25.152Z,4.32
2022-08-16T14:50:53.236Z,5.43
2022-08-16T14:53:20.993Z,4.93
2022-08-16T14:55:48.575Z,4.82
2022-08-16T14:58:19.643Z,4.50
2022-08-16T15:00:47.695Z,4.70
2022-08-16T15:03:17.671Z,5.05
2022-08-16T15:05:44.812Z,4.80
2022-08-16T15:08:11.931Z,5.30
2022-08-16T15:10:44.816Z,4.53
2022-08-16T15:13:12.975Z,4.90
2022-08-16T15:15:42.318Z,5.00
2022-08-16T15:18:11.940Z,4.43
2022-08-16T15:20:41.092Z,4.68
2022-08-16T15:23:10.022Z,4.53
2022-08-16T15:25:47.185Z,5.35
2022-08-16T15:28:31.477Z,4.60
2022-08-16T15:31:01.029Z,4.90
2022-08-16T15:33:32.232Z,4.90
2022-08-16T15:35:59.578Z,4.60
2022-08-16T15:38:54.744Z,6.47
2022-08-16T15:41:35.781Z,3.53
2022-08-16T15:44:05.224Z,4.75
2022-08-16T15:46:54.639Z,4.57
2022-08-16T15:49:23.384Z,4.30
2022-08-16T15:51:54.187Z,4.75
2022-08-16T15:54:30.669Z,4.72
2022-08-16T15:57:11.969Z,4.32
2022-08-16T15:59:49.426Z,5.10
2022-08-16T16:02:29.121Z,5.35
2022-08-16T16:05:00.876Z,5.07
2022-08-16T16:07:30.344Z,5.57
2022-08-16T16:09:58.811Z,5.38
2022-08-16T16:15:15.046Z,5.40
2022-08-16T16:17:42.200Z,5.82
2022-08-16T16:20:15.081Z,5.28
2022-08-16T16:22:43.306Z,5.00
2022-08-16T16:25:10.491Z,5.15
2022-08-16T16:27:37.597Z,5.55
2022-08-16T16:30:32.607Z,5.20
2022-08-16T16:32:54.190Z,4.63
2022-08-16T16:35:25.386Z,4.97
2022-08-16T16:37:56.483Z,4.80
2022-08-16T16:40:32.263Z,4.60
2022-08-16T16:43:00.081Z,5.43
2022-08-16T16:45:34.665Z,6.18
2022-08-16T16:48:11.751Z,5.55
2022-08-16T16:50:40.730Z,5.53
2022-08-16T16:53:17.630Z,5.18
2022-08-16T16:55:51.902Z,5.28
2022-08-16T16:58:43.345Z,5.65
2022-08-16T17:01:11.780Z,5.97
2022-08-16T17:03:39.040Z,5.07
2022-08-16T17:06:10.249Z,5.65
2022-08-16T17:08:40.657Z,6.03
2022-08-16T17:11:08.225Z,5.68
2022-08-16T17:13:35.384Z,5.40
2022-08-16T17:16:05.370Z,5.30
2022-08-16T17:19:17.467Z,5.43
2022-08-16T17:21:20.524Z,5.25
2022-08-16T17:23:59.419Z,4.80
2022-08-16T17:26:29.537Z,4.85
2022-08-16T17:29:00.188Z,4.97
2022-08-16T17:31:38.311Z,4.55
2022-08-16T17:34:30.367Z,4.35
2022-08-16T17:36:55.433Z,5.32
2022-08-16T17:39:27.988Z,5.07
2022-08-16T17:41:57.081Z,5.10
2022-08-16T17:44:24.187Z,5.28
2022-08-16T17:46:52.991Z,5.20
2022-08-16T17:49:20.538Z,5.15
2022-08-16T17:51:47.674Z,4.63
2022-08-16T17:54:18.355Z,4.60
2022-08-16T17:57:00.476Z,4.55
2022-08-16T17:59:28.313Z,4.90
2022-08-16T18:01:56.027Z,4.82
2022-08-16T18:04:49.329Z,5.00
2022-08-16T18:07:11.458Z,5.28
2022-08-16T18:09:40.670Z,4.75
2022-08-16T18:12:50.732Z,4.45
2022-08-16T18:15:04.383Z,4.80
2022-08-16T18:17:31.918Z,4.80
2022-08-16T18:19:59.000Z,4.72
2022-08-16T18:22:30.570Z,4.97
2022-08-16T18:24:58.817Z,5.22
2022-08-16T18:27:27.849Z,5.40
2022-08-16T18:29:55.137Z,5.22
2022-08-16T18:32:24.476Z,5.72
2022-08-16T18:34:52.277Z,5.57
2022-08-16T18:37:19.614Z,5.78
2022-08-16T18:39:46.740Z,5.18
2022-08-16T18:42:15.216Z,5.32
2022-08-16T18:44:43.513Z,5.60
2022-08-16T18:47:10.696Z,5.60
2022-08-16T18:49:37.794Z,5.38
2022-08-16T18:52:05.042Z,5.40
2022-08-16T18:54:32.893Z,5.40
2022-08-16T18:57:02.419Z,5.07
2022-08-16T18:59:33.168Z,5.25
2022-08-16T19:02:04.240Z,4.63
2022-08-16T19:04:50.421Z,5.13
2022-08-16T19:07:20.710Z,5.20
2022-08-16T19:09:47.831Z,5.05
2022-08-16T19:12:15.965Z,5.88
2022-08-16T19:14:44.138Z,6.07
2022-08-16T19:17:11.535Z,5.70
2022-08-16T19:19:38.654Z,5.38
2022-08-16T19:22:06.495Z,6.45
2022-08-16T19:24:33.576Z,5.90
2022-08-16T19:27:01.657Z,5.82
2022-08-16T19:29:28.988Z,6.28
2022-08-16T19:31:56.108Z,6.10
2022-08-16T19:34:23.132Z,6.70
2022-08-16T19:36:50.238Z,6.07
2022-08-16T19:39:17.697Z,5.95
2022-08-16T19:41:53.443Z,6.18
2022-08-16T19:44:21.804Z,6.53
2022-08-16T19:46:49.275Z,6.72
2022-08-16T19:49:16.992Z,6.53
2022-08-16T19:51:44.947Z,7.20
2022-08-16T19:54:11.980Z,6.50
2022-08-16T19:56:39.070Z,6.88
2022-08-16T19:59:39.428Z,6.47
2022-08-16T20:01:53.323Z,7.07
2022-08-16T20:04:21.506Z,6.88
2022-08-16T20:06:48.883Z,7.10
2022-08-16T20:09:16.282Z,6.97
2022-08-16T20:11:47.126Z,6.85
2022-08-16T20:14:25.763Z,7.38
2022-08-16T20:16:57.033Z,6.15
2022-08-16T20:19:25.026Z,6.30
2022-08-16T20:21:52.504Z,5.85
2022-08-16T20:24:36.254Z,6.05
2022-08-16T20:27:04.651Z,6.22
2022-08-16T20:29:31.725Z,7.00
2022-08-16T20:31:58.836Z,6.55
2022-08-16T20:34:25.914Z,6.47
2022-08-16T20:36:53.060Z,6.78
2022-08-16T20:39:20.188Z,6.90
2022-08-16T20:41:47.241Z,6.82
2022-08-16T20:44:14.327Z,6.25
2022-08-16T20:46:41.410Z,6.45
2022-08-16T20:49:10.111Z,6.82
2022-08-16T20:51:49.598Z,6.68
2022-08-16T20:54:19.168Z,6.70
2022-08-16T20:56:46.255Z,6.47
2022-08-16T20:59:13.321Z,6.93
2022-08-16T21:01:46.390Z,6.78
2022-08-16T21:04:18.741Z,6.72
2022-08-16T21:06:53.598Z,6.35
2022-08-16T21:09:26.068Z,7.05
2022-08-16T21:11:54.859Z,7.03
2022-08-16T21:14:22.290Z,7.80
2022-08-16T21:16:49.409Z,6.90
2022-08-16T21:19:16.508Z,6.90
2022-08-16T21:21:43.577Z,6.85
2022-08-16T21:24:10.676Z,6.78
2022-08-16T21:26:39.068Z,7.28
2022-08-16T21:29:07.807Z,6.90
2022-08-16T21:31:40.241Z,7.72
2022-08-16T21:34:08.054Z,7.43
2022-08-16T21:36:36.531Z,7.13
2022-08-16T21:39:05.767Z,7.55
2022-08-16T21:41:33.156Z,6.78
2022-08-16T21:44:00.189Z,7.47
2022-08-16T21:46:27.275Z,7.60
2022-08-16T21:48:54.338Z,7.85
2022-08-16T21:51:21.421Z,9.93
2022-08-16T21:53:48.559Z,9.50
2022-08-16T21:56:17.386Z,9.48
2022-08-16T21:58:45.269Z,10.60
2022-08-16T22:01:12.394Z,10.70
2022-08-16T22:03:39.439Z,11.20
2022-08-16T22:06:12.707Z,11.95
2022-08-16T22:08:49.630Z,12.32
2022-08-16T22:11:19.405Z,11.18
2022-08-16T22:13:58.300Z,10.50
2022-08-16T22:16:31.321Z,13.10
2022-08-16T22:18:58.493Z,15.25
2022-08-16T22:21:25.883Z,13.13
2022-08-16T22:23:57.691Z,13.40
2022-08-16T22:26:31.902Z,13.38
2022-08-16T22:29:07.356Z,14.23
2022-08-16T22:31:34.852Z,15.15
2022-08-16T22:34:02.318Z,13.80
2022-08-16T22:36:30.013Z,14.35
2022-08-16T22:38:58.854Z,14.68
2022-08-16T22:41:27.181Z,14.05
2022-08-16T22:43:54.245Z,12.95
2022-08-16T22:46:21.344Z,12.68
2022-08-16T22:48:50.173Z,13.10
2022-08-16T22:51:17.924Z,13.02
2022-08-16T22:53:45.049Z,13.95
2022-08-16T22:56:12.404Z,14.88
2022-08-16T22:58:39.702Z,13.00
2022-08-16T23:01:07.656Z,13.65
2022-08-16T23:03:35.021Z,14.07
2022-08-16T23:06:02.367Z,13.63
2022-08-16T23:08:33.666Z,14.63
2022-08-16T23:11:12.334Z,14.43
2022-08-16T23:13:50.704Z,14.65
2022-08-16T23:16:22.036Z,13.93
2022-08-16T23:18:49.699Z,14.43
2022-08-16T23:21:17.447Z,14.25
2022-08-16T23:23:46.444Z,14.15
2022-08-16T23:26:44.636Z,13.98
2022-08-16T23:29:05.049Z,14.85
2022-08-16T23:31:32.804Z,15.50
2022-08-16T23:34:00.389Z,15.60
2022-08-16T23:36:27.468Z,15.05
2022-08-16T23:38:54.508Z,15.05
2022-08-16T23:41:21.585Z,14.70
2022-08-16T23:43:48.941Z,14.10
2022-08-16T23:46:17.261Z,15.50
2022-08-16T23:49:56.029Z,13.45
2022-08-16T23:51:31.760Z,13.40
2022-08-16T23:53:59.854Z,14.70
2022-08-16T23:56:26.928Z,14.25
2022-08-16T23:59:02.856Z,14.35
